createdAt,value
2019-02-17T00:00:31.483Z,1.50
2019-02-17T00:05:35.251Z,1.50
2019-02-17T00:10:39.082Z,1.50
2019-02-17T00:15:43.099Z,1.50
2019-02-17T00:20:46.979Z,1.40
2019-02-17T00:25:51.158Z,0.90
2019-02-17T00:30:55.493Z,0.90
2019-02-17T00:35:59.446Z,0.80
2019-02-17T00:41:03.190Z,1.00
2019-02-17T00:46:06.878Z,1.10
2019-02-17T00:51:10.814Z,1.10
2019-02-17T00:56:14.569Z,1.10
2019-02-17T01:01:18.331Z,0.90
2019-02-17T01:11:25.303Z,0.00
2019-02-17T01:16:28.984Z,-0.20
2019-02-17T01:26:35.955Z,0.10
2019-02-17T01:31:39.634Z,0.30
2019-02-17T01:36:43.819Z,0.50
2019-02-17T01:41:47.623Z,0.60
2019-02-17T01:46:51.387Z,0.50
2019-02-17T01:56:58.364Z,0.40
2019-02-17T02:02:02.051Z,0.20
2019-02-17T02:07:05.778Z,-0.10
2019-02-17T02:32:22.686Z,-0.20
2019-02-17T02:42:29.995Z,-0.20
2019-02-17T02:47:33.767Z,-0.30
2019-02-17T02:52:37.565Z,-0.20
2019-02-17T03:38:08.093Z,-0.20
2019-02-17T03:48:15.159Z,-0.10
2019-02-17T03:53:19.461Z,-0.20
2019-02-17T03:58:23.150Z,-0.30
2019-02-17T04:03:26.845Z,-0.30
2019-02-17T04:13:34.115Z,-0.30
2019-02-17T04:18:37.814Z,-0.40
2019-02-17T04:23:41.497Z,-0.40
2019-02-17T04:38:51.909Z,-0.90
2019-02-17T04:48:58.889Z,-1.10
2019-02-17T04:54:02.848Z,-1.10
2019-02-17T04:59:06.554Z,-1.10
2019-02-17T05:04:10.258Z,-1.20
2019-02-17T05:14:17.611Z,-1.10
2019-02-17T05:19:21.363Z,-1.00
2019-02-17T05:24:25.855Z,-1.10
2019-02-17T05:29:29.849Z,-1.00
2019-02-17T05:39:37.119Z,-0.60
2019-02-17T05:54:50.345Z,-0.30
2019-02-17T05:59:53.464Z,-0.30
2019-02-17T06:10:00.544Z,-0.10
2019-02-17T06:15:04.978Z,0.20
2019-02-17T06:25:12.500Z,0.60
2019-02-17T06:30:16.499Z,0.70
2019-02-17T06:40:23.691Z,0.70
2019-02-17T06:45:27.407Z,0.90
2019-02-17T07:06:02.026Z,1.30
2019-02-17T07:16:09.252Z,1.40
2019-02-17T07:26:17.243Z,1.70
2019-02-17T07:46:33.298Z,2.30
2019-02-17T07:51:37.157Z,2.60
2019-02-17T07:56:40.894Z,2.80
2019-02-17T08:01:45.590Z,3.10
2019-02-17T08:06:49.507Z,3.30
2019-02-17T08:11:53.199Z,3.40
2019-02-17T08:16:57.203Z,3.60
2019-02-17T08:22:00.927Z,3.80
2019-02-17T08:27:04.742Z,4.00
2019-02-17T08:32:08.510Z,4.30
2019-02-17T08:37:12.218Z,4.50
2019-02-17T08:42:15.917Z,4.80
2019-02-17T08:47:19.757Z,5.00
2019-02-17T08:52:23.751Z,5.20
2019-02-17T08:57:27.442Z,5.40
2019-02-17T09:02:31.142Z,5.60
2019-02-17T09:07:34.880Z,5.90
2019-02-17T09:12:40.152Z,6.40
2019-02-17T09:17:43.981Z,6.60
2019-02-17T09:22:48.106Z,6.80
2019-02-17T09:27:52.343Z,7.00
2019-02-17T09:32:56.073Z,7.40
2019-02-17T09:38:00.074Z,7.70
2019-02-17T09:43:05.483Z,8.00
2019-02-17T09:48:09.590Z,8.30
2019-02-17T09:53:13.637Z,8.70
2019-02-17T09:58:17.408Z,9.00
2019-02-17T10:08:25.229Z,10.10
2019-02-17T10:18:32.622Z,10.90
2019-02-17T10:23:42.531Z,11.00
2019-02-17T10:28:47.625Z,11.20
2019-02-17T10:33:51.354Z,11.60
2019-02-17T10:38:55.154Z,11.90
2019-02-17T10:43:59.135Z,12.30
2019-02-17T10:49:02.941Z,12.40
2019-02-17T10:54:06.719Z,12.60
2019-02-17T10:59:10.773Z,13.10
2019-02-17T11:04:15.641Z,13.10
2019-02-17T11:09:25.770Z,12.80
2019-02-17T11:14:29.783Z,12.70
2019-02-17T11:19:33.550Z,13.00
2019-02-17T11:24:37.546Z,13.00
2019-02-17T11:29:41.606Z,13.20
2019-02-17T11:34:45.550Z,13.20
2019-02-17T11:39:49.661Z,13.60
2019-02-17T11:44:53.578Z,13.90
2019-02-17T11:49:57.990Z,14.20
2019-02-17T11:55:02.118Z,14.30
2019-02-17T12:00:09.189Z,14.40
2019-02-17T12:05:13.378Z,14.10
2019-02-17T12:10:17.867Z,14.10
2019-02-17T12:15:21.609Z,13.90
2019-02-17T12:20:43.160Z,13.80
2019-02-17T12:25:57.569Z,13.60
2019-02-17T12:31:16.608Z,13.10
2019-02-17T12:36:20.539Z,12.90
2019-02-17T12:41:28.214Z,13.00
2019-02-17T12:46:32.546Z,13.00
2019-02-17T12:51:36.898Z,13.20
2019-02-17T12:56:41.703Z,12.90
2019-02-17T13:01:45.913Z,12.80
2019-02-17T13:06:50.140Z,13.00
2019-02-17T13:11:54.021Z,13.10
2019-02-17T13:16:59.858Z,13.30
2019-02-17T13:22:04.129Z,13.60
2019-02-17T13:27:08.210Z,13.90
2019-02-17T13:32:12.170Z,13.60
2019-02-17T13:37:16.642Z,13.60
2019-02-17T13:42:22.456Z,13.30
2019-02-17T13:52:56.863Z,13.60
2019-02-17T14:23:31.425Z,14.10
2019-02-17T14:28:35.640Z,14.10
2019-02-17T14:59:05.380Z,13.80
2019-02-17T15:04:09.771Z,13.50
2019-02-17T15:09:15.439Z,13.00
2019-02-17T15:29:31.958Z,12.20
2019-02-17T16:00:04.981Z,10.50
2019-02-17T16:10:12.601Z,9.60
2019-02-17T21:29:05.945Z,1.50
2019-02-17T21:34:09.913Z,1.40
2019-02-17T21:39:13.625Z,1.30
2019-02-17T21:44:17.361Z,1.20
2019-02-17T22:19:41.235Z,0.90
2019-02-17T22:55:05.981Z,0.70
2019-02-17T23:00:27.515Z,0.60
2019-02-17T23:10:34.717Z,0.50
2019-02-17T23:20:41.721Z,0.50
2019-02-17T23:30:48.698Z,0.60
2019-02-17T23:35:52.441Z,0.60
2019-02-17T23:40:56.121Z,0.60
